< < Back
Terminal Aerodrome Forecast


Current Version              Previous Versions:   1  2  3  4  5  6  7  8  9  

Terminal Aerodrome Forecast

606
FTAK31 PAJN 310520
TAFAHN
TAF
PAHN 310520Z 3106/0106 31008KT P6SM VCSH FEW050 OVC100
     FM311000 31014G22KT P6SM VCSH OVC090
     FM312100 31012G21KT P6SM BKN090
     FM010300 31009KT P6SM BKN090
      AMD LTD TO CLD VIS AND WIND=

Latest METAR

394
SAUS70 KWBC 310554
MTRAHN
METAR KAHN 310551Z AUTO 09003KT 10SM FEW055 22/22 A3004 RMK AO2 SLP163
T02220217 10267 20222 53001


USA.gov is the U.S. government's official web portal to all federal, state and local government web resources and services.